createdAt,value
2018-12-13T00:00:42.198Z,28.70
2018-12-13T00:02:45.303Z,29.37
2018-12-13T00:04:48.474Z,28.03
2018-12-13T00:06:51.570Z,26.17
2018-12-13T00:08:54.797Z,27.90
2018-12-13T00:10:57.881Z,25.37
2018-12-13T00:13:01.054Z,27.67
2018-12-13T00:15:04.394Z,28.03
2018-12-13T00:17:07.649Z,26.33
2018-12-13T00:19:10.878Z,24.97
2018-12-13T00:21:14.066Z,27.10
2018-12-13T00:23:17.252Z,24.40
2018-12-13T00:25:20.417Z,23.20
2018-12-13T00:27:23.570Z,24.27
2018-12-13T00:29:26.855Z,24.40
2018-12-13T00:31:30.025Z,23.80
2018-12-13T00:33:33.124Z,25.00
2018-12-13T00:35:36.222Z,24.07
2018-12-13T00:37:39.371Z,22.93
2018-12-13T00:39:42.561Z,24.60
2018-12-13T00:41:45.718Z,22.20
2018-12-13T00:43:48.844Z,23.07
2018-12-13T00:45:52.109Z,22.50
2018-12-13T00:47:55.266Z,22.20
2018-12-13T00:49:58.410Z,21.40
2018-12-13T00:52:01.497Z,22.10
2018-12-13T00:54:04.651Z,21.03
2018-12-13T00:56:07.809Z,22.43
2018-12-13T00:58:10.971Z,20.07
2018-12-13T01:00:14.200Z,21.43
2018-12-13T01:02:17.279Z,22.70
2018-12-13T01:04:20.452Z,20.03
2018-12-13T01:06:23.687Z,19.30
2018-12-13T01:08:26.935Z,19.07
2018-12-13T01:10:30.165Z,19.00
2018-12-13T01:12:33.343Z,20.83
2018-12-13T01:14:36.522Z,20.50
2018-12-13T01:16:39.684Z,19.23
2018-12-13T01:18:42.862Z,18.60
2018-12-13T01:20:45.990Z,24.70
2018-12-13T01:22:49.082Z,21.90
2018-12-13T01:24:52.286Z,21.67
2018-12-13T01:26:55.461Z,22.40
2018-12-13T01:28:58.554Z,19.37
2018-12-13T01:31:01.726Z,22.50
2018-12-13T01:33:04.806Z,22.63
2018-12-13T01:35:07.990Z,20.37
2018-12-13T01:37:11.078Z,21.27
2018-12-13T01:39:14.242Z,21.70
2018-12-13T01:41:17.359Z,22.33
2018-12-13T01:43:32.089Z,25.57
2018-12-13T01:45:35.447Z,23.50
2018-12-13T01:47:38.538Z,24.57
2018-12-13T01:49:41.723Z,25.87
2018-12-13T01:51:44.854Z,25.10
2018-12-13T01:53:47.941Z,25.10
2018-12-13T01:55:51.050Z,25.07
2018-12-13T01:57:54.207Z,24.10
2018-12-13T01:59:57.323Z,26.40
2018-12-13T02:02:00.494Z,23.80
2018-12-13T02:04:03.594Z,26.30
2018-12-13T02:06:06.701Z,27.10
2018-12-13T02:08:09.865Z,27.03
2018-12-13T02:10:13.035Z,27.17
2018-12-13T02:12:16.166Z,28.37
2018-12-13T02:14:19.383Z,25.77
2018-12-13T02:16:22.522Z,28.70
2018-12-13T02:18:25.673Z,29.73
2018-12-13T02:20:28.895Z,27.97
2018-12-13T02:22:32.018Z,28.93
2018-12-13T02:24:35.166Z,29.63
2018-12-13T02:26:38.366Z,28.80
2018-12-13T02:28:41.502Z,32.17
2018-12-13T02:30:44.632Z,29.77
2018-12-13T02:32:47.843Z,31.33
2018-12-13T02:34:51.006Z,30.83
2018-12-13T02:36:54.148Z,30.67
2018-12-13T02:38:57.287Z,33.60
2018-12-13T02:41:01.523Z,33.13
2018-12-13T02:43:04.661Z,34.17
2018-12-13T02:45:08.051Z,33.53
2018-12-13T02:47:11.271Z,33.57
2018-12-13T02:49:14.385Z,33.50
2018-12-13T02:51:17.506Z,35.57
2018-12-13T02:53:20.638Z,34.13
2018-12-13T02:55:23.799Z,35.40
2018-12-13T02:57:27.542Z,31.90
2018-12-13T02:59:30.765Z,34.07
2018-12-13T03:01:33.907Z,33.20
2018-12-13T03:03:37.039Z,34.23
2018-12-13T03:05:40.258Z,34.03
2018-12-13T03:07:43.395Z,32.30
2018-12-13T03:09:46.638Z,26.87
2018-12-13T03:11:49.901Z,32.60
2018-12-13T03:13:53.218Z,34.00
2018-12-13T03:15:56.399Z,32.30
2018-12-13T03:17:59.785Z,32.90
2018-12-13T03:20:03.011Z,34.53
2018-12-13T03:22:06.093Z,32.00
2018-12-13T03:24:09.262Z,34.27
2018-12-13T03:26:12.431Z,35.10
2018-12-13T03:28:15.580Z,33.17
2018-12-13T03:30:18.762Z,31.70
2018-12-13T03:32:21.923Z,32.60
2018-12-13T03:34:25.162Z,33.10
2018-12-13T03:36:28.258Z,31.93
2018-12-13T03:38:31.463Z,33.20
2018-12-13T03:40:34.743Z,33.83
2018-12-13T03:42:37.839Z,31.80
2018-12-13T03:44:41.024Z,30.20
2018-12-13T03:46:44.271Z,29.47
2018-12-13T03:48:47.442Z,29.60
2018-12-13T03:50:50.608Z,27.20
2018-12-13T03:52:53.832Z,31.83
2018-12-13T03:54:56.972Z,32.20
2018-12-13T03:57:00.114Z,31.70
2018-12-13T03:59:03.261Z,32.43
2018-12-13T04:01:06.431Z,30.50
2018-12-13T04:03:09.539Z,30.27
2018-12-13T04:05:12.705Z,26.60
2018-12-13T04:07:15.904Z,29.00
2018-12-13T04:09:19.006Z,30.07
2018-12-13T04:11:22.163Z,29.07
2018-12-13T04:13:25.304Z,28.43
2018-12-13T04:15:28.551Z,29.87
2018-12-13T04:17:31.640Z,27.90
2018-12-13T04:19:34.734Z,29.37
2018-12-13T04:21:37.843Z,28.00
2018-12-13T04:23:40.930Z,30.30
2018-12-13T04:25:44.094Z,29.00
2018-12-13T04:27:47.752Z,28.60
2018-12-13T04:29:52.755Z,30.47
2018-12-13T04:31:56.448Z,31.13
2018-12-13T04:34:00.382Z,31.40
2018-12-13T04:36:04.285Z,27.60
2018-12-13T04:38:08.988Z,29.53
2018-12-13T04:40:14.869Z,27.77
2018-12-13T04:47:16.158Z,32.67
2018-12-13T04:49:19.532Z,30.37
2018-12-13T04:51:22.853Z,31.53
2018-12-13T04:53:26.315Z,29.40
2018-12-13T04:55:29.566Z,28.70
2018-12-13T04:57:32.662Z,28.70
2018-12-13T04:59:35.830Z,27.67
2018-12-13T05:01:39.011Z,30.77
2018-12-13T05:03:42.210Z,31.43
2018-12-13T05:05:45.306Z,29.67
2018-12-13T05:07:48.398Z,30.10
2018-12-13T05:09:51.564Z,28.70
2018-12-13T05:11:54.705Z,29.90
2018-12-13T05:13:57.874Z,28.33
2018-12-13T05:16:01.046Z,30.30
2018-12-13T05:18:04.321Z,29.73
2018-12-13T05:20:07.488Z,29.97
2018-12-13T05:22:10.735Z,28.97
2018-12-13T05:24:14.009Z,30.07
2018-12-13T05:26:17.158Z,30.80
2018-12-13T05:28:20.337Z,31.53
2018-12-13T05:30:23.434Z,30.90
2018-12-13T05:32:26.532Z,30.57
2018-12-13T05:34:29.694Z,33.30
2018-12-13T05:36:32.810Z,32.30
2018-12-13T05:38:35.939Z,31.27
2018-12-13T05:40:39.046Z,33.00
2018-12-13T05:42:42.974Z,32.27
2018-12-13T05:44:46.225Z,35.73
2018-12-13T05:46:49.540Z,32.03
2018-12-13T05:48:52.697Z,29.80
2018-12-13T05:50:55.805Z,31.93
2018-12-13T05:52:58.926Z,32.93
2018-12-13T05:55:02.134Z,31.30
2018-12-13T05:57:05.314Z,33.03
2018-12-13T05:59:08.433Z,35.47
2018-12-13T06:01:11.665Z,37.17
2018-12-13T06:03:14.938Z,37.40
2018-12-13T06:05:18.121Z,31.40
2018-12-13T06:07:21.221Z,29.10
2018-12-13T06:09:24.403Z,32.57
2018-12-13T06:11:27.494Z,30.23
2018-12-13T06:13:30.591Z,30.40
2018-12-13T06:15:33.698Z,32.80
2018-12-13T06:17:36.822Z,30.77
2018-12-13T06:19:39.972Z,34.77
2018-12-13T06:21:43.067Z,32.50
2018-12-13T06:23:47.077Z,31.73
2018-12-13T06:25:50.590Z,33.70
2018-12-13T06:27:53.845Z,34.57
2018-12-13T06:29:59.102Z,34.10
2018-12-13T06:32:02.111Z,33.90
2018-12-13T06:34:05.290Z,35.83
2018-12-13T06:36:08.411Z,37.27
2018-12-13T06:38:11.591Z,40.00
2018-12-13T06:40:16.192Z,41.90
2018-12-13T06:42:21.118Z,40.73
2018-12-13T06:46:59.157Z,37.47
2018-12-13T06:49:26.392Z,40.17
2018-12-13T06:51:33.407Z,45.57
2018-12-13T06:53:47.873Z,41.77
2018-12-13T07:03:44.979Z,44.67
2018-12-13T07:22:03.929Z,52.30
2018-12-13T07:26:29.632Z,54.40
2018-12-13T07:28:32.848Z,47.37
2018-12-13T07:30:36.122Z,51.17
2018-12-13T07:32:39.382Z,52.83
2018-12-13T07:34:42.556Z,49.07
2018-12-13T07:36:45.823Z,50.43
2018-12-13T07:38:49.088Z,48.63
2018-12-13T07:40:52.187Z,43.70
2018-12-13T07:42:55.378Z,48.10
2018-12-13T07:44:58.856Z,43.07
2018-12-13T07:47:02.017Z,48.17
2018-12-13T07:49:05.202Z,47.20
2018-12-13T07:51:08.482Z,44.73
2018-12-13T07:53:11.589Z,48.43
2018-12-13T07:55:14.783Z,48.17
2018-12-13T07:57:18.088Z,45.10
2018-12-13T07:59:21.310Z,50.80
2018-12-13T08:01:24.480Z,49.87
2018-12-13T08:03:29.581Z,45.10
2018-12-13T08:05:32.796Z,47.83
2018-12-13T08:07:35.907Z,47.47
2018-12-13T08:09:39.203Z,49.17
2018-12-13T08:11:42.630Z,50.27
2018-12-13T08:13:45.773Z,50.63
2018-12-13T08:15:48.921Z,46.73
2018-12-13T08:17:52.085Z,48.00
2018-12-13T08:19:55.231Z,51.10
2018-12-13T08:21:58.515Z,49.30
2018-12-13T08:24:01.664Z,47.23
2018-12-13T08:26:04.798Z,44.70
2018-12-13T08:28:07.954Z,45.87
2018-12-13T08:30:11.270Z,42.20
2018-12-13T08:32:14.410Z,46.20
2018-12-13T08:34:24.953Z,41.17
2018-12-13T08:36:33.747Z,42.17
2018-12-13T08:38:36.998Z,40.30
2018-12-13T08:40:40.149Z,39.17
2018-12-13T08:42:43.363Z,38.03
2018-12-13T08:44:46.658Z,36.17
2018-12-13T08:46:49.794Z,35.00
2018-12-13T08:48:53.007Z,34.23
2018-12-13T08:50:56.145Z,35.13
2018-12-13T08:52:59.291Z,33.07
2018-12-13T08:55:02.589Z,33.90
2018-12-13T08:57:05.728Z,36.87
2018-12-13T08:59:09.021Z,31.63
2018-12-13T09:01:12.212Z,32.20
2018-12-13T09:03:15.338Z,30.53
2018-12-13T09:05:18.470Z,30.03
2018-12-13T09:07:21.680Z,29.87
2018-12-13T09:09:24.878Z,31.20
2018-12-13T09:11:28.098Z,30.97
2018-12-13T09:13:31.179Z,28.13
2018-12-13T09:15:34.279Z,27.70
2018-12-13T09:17:37.506Z,29.13
2018-12-13T09:19:40.589Z,31.30
2018-12-13T09:21:43.691Z,28.83
2018-12-13T09:23:46.834Z,29.43
2018-12-13T09:25:49.981Z,29.17
2018-12-13T09:27:53.071Z,29.27
2018-12-13T09:29:56.166Z,28.53
2018-12-13T09:31:59.340Z,29.97
2018-12-13T09:34:02.505Z,28.03
2018-12-13T09:36:05.666Z,27.60
2018-12-13T09:38:08.826Z,26.70
2018-12-13T09:40:12.050Z,27.90
2018-12-13T09:42:15.147Z,28.30
2018-12-13T09:44:18.231Z,26.37
2018-12-13T09:46:21.321Z,28.80
2018-12-13T09:48:24.397Z,28.20
2018-12-13T09:50:27.477Z,29.30
2018-12-13T11:39:32.032Z,18.03
2018-12-13T11:44:01.225Z,20.33
2018-12-13T11:49:12.175Z,18.90
2018-12-13T11:51:19.393Z,19.37
2018-12-13T11:53:22.934Z,20.47
2018-12-13T11:57:56.053Z,17.83
2018-12-13T11:59:59.261Z,17.00
2018-12-13T12:02:02.505Z,17.33
2018-12-13T12:04:05.618Z,15.50
2018-12-13T12:06:08.768Z,18.50
2018-12-13T12:08:11.888Z,20.43
2018-12-13T12:10:15.084Z,15.37
2018-12-13T12:12:19.278Z,18.10
2018-12-13T12:14:22.711Z,15.67
2018-12-13T12:16:28.199Z,18.57
2018-12-13T12:18:33.336Z,16.27
2018-12-13T12:20:40.519Z,15.83
2018-12-13T12:22:44.631Z,14.00
2018-12-13T12:24:51.120Z,16.60
2018-12-13T12:26:54.714Z,16.20
2018-12-13T12:31:28.029Z,14.73
2018-12-13T12:33:38.257Z,14.70
2018-12-13T12:35:50.788Z,15.60
2018-12-13T13:10:16.274Z,12.20
2018-12-13T13:15:43.820Z,12.57
2018-12-13T13:18:05.605Z,12.03
2018-12-13T13:20:21.942Z,13.80
2018-12-13T13:28:34.444Z,12.80
2018-12-13T13:33:35.970Z,11.13
2018-12-13T13:36:18.552Z,12.30
2018-12-13T13:38:48.639Z,12.77
2018-12-13T14:03:19.353Z,12.27
2018-12-13T14:05:55.963Z,11.30
2018-12-13T14:30:57.916Z,9.67
2018-12-13T14:34:37.032Z,11.63
2018-12-13T14:37:09.806Z,11.23
2018-12-13T14:39:44.397Z,11.73
2018-12-13T14:45:05.958Z,9.13
2018-12-13T15:01:18.686Z,8.10
2018-12-13T15:16:48.382Z,11.30
2018-12-13T15:27:19.487Z,11.37
2018-12-13T15:32:00.731Z,12.10
2018-12-13T15:34:14.239Z,20.60
2018-12-13T15:36:32.580Z,12.00
2018-12-13T15:38:44.323Z,11.07
2018-12-13T15:43:30.260Z,12.00
2018-12-13T15:46:20.879Z,12.30
2018-12-13T15:51:11.645Z,11.07
2018-12-13T15:56:10.766Z,10.50
2018-12-13T15:58:13.878Z,9.93
2018-12-13T16:00:17.106Z,13.13
2018-12-13T16:02:20.433Z,10.53
2018-12-13T16:04:23.510Z,11.20
2018-12-13T16:06:28.670Z,11.00
2018-12-13T16:08:31.774Z,6.17
2018-12-13T16:10:34.919Z,11.20
2018-12-13T16:12:40.114Z,10.87
2018-12-13T16:14:43.242Z,8.13
2018-12-13T16:16:46.375Z,12.30
2018-12-13T16:18:49.525Z,11.80
2018-12-13T16:20:52.745Z,13.63
2018-12-13T16:22:55.926Z,12.63
2018-12-13T16:24:59.074Z,12.50
2018-12-13T16:27:02.254Z,12.30
2018-12-13T16:29:05.428Z,12.07
2018-12-13T16:31:17.845Z,11.70
2018-12-13T16:33:25.054Z,12.40
2018-12-13T16:35:28.290Z,12.80
2018-12-13T16:37:31.494Z,11.30
2018-12-13T16:39:34.641Z,12.23
2018-12-13T17:28:50.541Z,11.90
2018-12-13T17:33:21.392Z,13.00
2018-12-13T17:35:25.145Z,11.30
2018-12-13T17:37:36.232Z,11.40
2018-12-13T17:43:08.793Z,16.40
2018-12-13T17:45:40.305Z,13.90
2018-12-13T18:01:36.140Z,11.67
2018-12-13T18:20:41.023Z,15.37
2018-12-13T18:22:49.259Z,12.93
2018-12-13T18:24:56.884Z,13.50
2018-12-13T18:27:00.586Z,12.50
2018-12-13T18:29:05.089Z,12.43
2018-12-13T18:31:08.671Z,12.20
2018-12-13T18:44:34.055Z,12.43
2018-12-13T18:46:46.392Z,13.67
2018-12-13T18:51:55.256Z,12.13
2018-12-13T18:57:11.382Z,13.40
2018-12-13T19:14:29.882Z,11.40
2018-12-13T19:19:11.593Z,12.53
2018-12-13T19:21:23.269Z,15.13
2018-12-13T19:23:37.805Z,13.43
2018-12-13T19:28:43.141Z,15.20
2018-12-13T19:33:53.266Z,14.33
2018-12-13T19:38:59.174Z,13.47
2018-12-13T19:52:33.499Z,15.80
2018-12-13T19:55:07.725Z,14.57
2018-12-13T19:57:30.176Z,15.83
2018-12-13T20:00:02.872Z,16.47
2018-12-13T20:20:03.255Z,14.37
2018-12-13T20:27:07.782Z,15.40
2018-12-13T20:32:41.556Z,15.47
2018-12-13T20:34:46.042Z,16.10
2018-12-13T20:39:16.747Z,15.87
2018-12-13T20:41:22.951Z,15.30
2018-12-13T20:43:30.447Z,16.10
2018-12-13T20:45:33.786Z,14.33
2018-12-13T20:47:36.954Z,14.13
2018-12-13T20:49:40.240Z,16.37
2018-12-13T20:51:43.672Z,15.30
2018-12-13T20:53:46.887Z,18.43
2018-12-13T20:55:50.531Z,14.40
2018-12-13T20:58:16.463Z,17.40
2018-12-13T21:00:19.773Z,17.10
2018-12-13T21:02:22.961Z,17.47
2018-12-13T21:04:26.144Z,16.00
2018-12-13T21:06:29.379Z,16.40
2018-12-13T21:08:32.537Z,16.33
2018-12-13T21:10:35.854Z,17.10
2018-12-13T21:12:39.069Z,15.50
2018-12-13T21:14:42.384Z,15.50
2018-12-13T21:16:59.914Z,16.07
2018-12-13T21:19:03.634Z,13.83
2018-12-13T21:21:06.908Z,15.60
2018-12-13T21:23:11.780Z,14.97
2018-12-13T21:25:33.209Z,19.00
2018-12-13T21:27:38.071Z,16.00
2018-12-13T21:32:25.797Z,15.20
2018-12-13T21:34:29.256Z,17.10
2018-12-13T21:41:50.871Z,16.63
2018-12-13T21:43:56.629Z,16.50
2018-12-13T21:46:01.531Z,17.77
2018-12-13T21:48:12.523Z,17.20
2018-12-13T21:50:17.136Z,16.60
2018-12-13T21:52:37.567Z,18.63
2018-12-13T21:54:43.204Z,17.47
2018-12-13T21:57:08.419Z,17.13
2018-12-13T22:02:19.771Z,16.87
2018-12-13T22:04:23.389Z,18.17
2018-12-13T22:06:37.293Z,19.70
2018-12-13T22:08:43.790Z,15.73
2018-12-13T22:11:04.076Z,19.60
2018-12-13T22:21:23.559Z,20.60
